Narita International Airport
RJAA : now visible

Airfield :











YOU CAN JOIN US ON...

 
LOGIN :

Register | Disclaimer

   EN    FR    IT 

 









Legend :    VFR   Marginal VFR   IFR   Intensive IFR   Very Intensive IFR
Visi :
Ceiling :
>= 8 km
>= 3000ft
5 to 8 km
1000 to 3000 ft
1500m to 5 km
500 to 1000 ft
800 to 1500m
200 to 500 ft
< 800m
< 200 ft
Symbols :   Thunderstorms  Fog  Heavy snow  Heavy precipitations  Wind > 20 kt






- Airport Elevation : 141 ft
- IATA code : NRT


RJAA - Narita International

CURRENT METAR :
  • 140100Z 27004KT 200V330 9999 FEW020 10/02 Q1020 BECMG 23012KT RMK 1CU020 A3012

EXPIRED METARs :
  • 140030Z 31004KT 260V350 9999 FEW030 08/M00 Q1020 BECMG 23012KT
  • 140000Z 29003KT 240V340 9999 FEW030 07/M00 Q1020 BECMG 23010KT
  • 132330Z 28003KT 250V320 9999 FEW030 06/M01 Q1021 BECMG FM0030 23005KT
  • 132300Z VRB02KT 9999 FEW015 SCT030 05/M01 Q1021 BECMG FM0030 23005KT
  • 132230Z 26004KT 9999 FEW015 BKN030 05/M00 Q1021 NOSIG RMK 1CU015 5SC030 A3017

TAF TAF RJAA
Valid from the 14 at 00:00 until the 15 at 06:00 UTC


132305Z 1400/1506 27005KT 9999 FEW020
BECMG 1400/1402 23012KT
TEMPO 1403/1407 23015G26KT
BECMG 1409/1411 31010KT
TEMPO 1411/1415 32018G28KT



MET'MAP, your aeronautical weather chart ! - Copyright ORBIFLY December 2007 - Disclaimer

ORBIFLY MET'MAP TEAM :

Programming & Development : Alexandra Zaïnal
Concept & original design : Baudouin d'Aumeries
Assistance for programming : Marc-Olivier Méhu
Technical & hardware support : Manuel Goepfert

Contact : metmap@orbifly.com




SOURCES & CREDITS :

   NOAA       Earth
Advisory